createdAt,value
2023-05-20T00:01:22.345Z,3.70
2023-05-20T00:03:43.980Z,4.00
2023-05-20T00:06:05.516Z,3.77
2023-05-20T00:08:27.040Z,4.13
2023-05-20T00:10:48.491Z,4.03
2023-05-20T00:13:09.949Z,3.90
2023-05-20T00:15:32.729Z,3.87
2023-05-20T00:17:55.130Z,3.87
2023-05-20T00:20:16.780Z,3.90
2023-05-20T00:22:38.237Z,3.53
2023-05-20T00:24:59.891Z,4.00
2023-05-20T00:27:21.400Z,3.90
2023-05-20T00:29:42.856Z,4.60
2023-05-20T00:32:04.648Z,4.57
2023-05-20T00:34:26.169Z,4.40
2023-05-20T00:36:47.677Z,4.20
2023-05-20T00:39:09.110Z,4.50
2023-05-20T00:41:30.657Z,4.47
2023-05-20T00:43:56.333Z,4.87
2023-05-20T00:46:17.832Z,5.53
2023-05-20T00:48:42.377Z,4.73
2023-05-20T00:51:05.052Z,5.00
2023-05-20T00:53:26.963Z,5.33
2023-05-20T00:55:48.959Z,5.23
2023-05-20T00:58:10.852Z,5.00
2023-05-20T01:00:32.364Z,4.83
2023-05-20T01:02:55.675Z,5.20
2023-05-20T01:05:17.235Z,4.70
2023-05-20T01:07:38.943Z,5.07
2023-05-20T01:10:00.882Z,6.13
2023-05-20T01:12:40.397Z,6.50
2023-05-20T01:15:07.093Z,6.00
2023-05-20T01:17:32.977Z,6.30
2023-05-20T01:19:56.573Z,4.97
2023-05-20T01:22:18.027Z,5.30
2023-05-20T01:24:48.562Z,4.80
2023-05-20T01:27:11.421Z,6.20
2023-05-20T01:29:32.939Z,6.13
2023-05-20T01:31:57.098Z,5.23
2023-05-20T01:34:18.925Z,5.77
2023-05-20T01:36:41.236Z,6.10
2023-05-20T01:39:03.532Z,5.73
2023-05-20T01:41:27.335Z,7.20
2023-05-20T01:43:48.939Z,5.90
2023-05-20T01:46:10.533Z,6.50
2023-05-20T01:48:32.142Z,5.30
2023-05-20T01:50:53.655Z,5.27
2023-05-20T01:53:15.369Z,4.97
2023-05-20T01:55:36.871Z,5.10
2023-05-20T01:57:58.436Z,5.30
2023-05-20T02:00:20.142Z,5.23
2023-05-20T02:02:41.753Z,4.80
2023-05-20T02:05:03.334Z,4.97
2023-05-20T02:07:25.400Z,5.13
2023-05-20T02:09:47.729Z,4.70
2023-05-20T02:12:10.094Z,5.17
2023-05-20T02:14:31.728Z,4.70
2023-05-20T02:16:53.356Z,5.03
2023-05-20T02:19:19.797Z,5.10
2023-05-20T02:21:44.040Z,5.23
2023-05-20T02:24:05.662Z,4.93
2023-05-20T02:26:27.117Z,5.60
2023-05-20T02:28:50.767Z,5.70
2023-05-20T02:31:13.280Z,5.23
2023-05-20T02:33:35.108Z,5.60
2023-05-20T02:35:56.612Z,5.60
2023-05-20T02:38:18.076Z,6.33
2023-05-20T02:40:39.875Z,6.27
2023-05-20T02:43:04.034Z,7.00
2023-05-20T02:45:25.624Z,6.80
2023-05-20T02:47:47.128Z,8.40
2023-05-20T02:50:09.024Z,7.17
2023-05-20T02:52:30.498Z,8.17
2023-05-20T02:54:52.825Z,7.93
2023-05-20T02:57:14.445Z,8.00
2023-05-20T02:59:36.166Z,8.27
2023-05-20T03:01:57.679Z,8.47
2023-05-20T03:04:19.332Z,7.47
2023-05-20T03:06:44.447Z,7.40
2023-05-20T03:09:06.043Z,8.43
2023-05-20T03:11:27.575Z,8.43
2023-05-20T03:13:49.070Z,8.10
2023-05-20T03:16:13.214Z,8.60
2023-05-20T03:18:34.846Z,8.33
2023-05-20T03:20:56.369Z,9.03
2023-05-20T03:23:17.862Z,8.30
2023-05-20T03:25:40.668Z,8.10
2023-05-20T03:28:02.356Z,8.83
2023-05-20T03:30:24.188Z,9.07
2023-05-20T03:32:45.673Z,8.80
2023-05-20T03:35:08.605Z,8.97
2023-05-20T03:37:30.085Z,9.27
2023-05-20T03:39:51.535Z,8.60
2023-05-20T03:42:12.978Z,7.87
2023-05-20T03:44:34.447Z,9.43
2023-05-20T03:46:55.908Z,9.83
2023-05-20T03:49:17.422Z,9.97
2023-05-20T03:51:38.872Z,9.70
2023-05-20T03:54:01.172Z,9.27
2023-05-20T03:56:23.043Z,9.67
2023-05-20T03:58:44.500Z,9.90
2023-05-20T04:01:05.947Z,10.43
2023-05-20T04:03:28.955Z,10.10
2023-05-20T04:05:50.823Z,10.90
2023-05-20T04:08:13.667Z,11.73
2023-05-20T04:10:35.645Z,11.67
2023-05-20T04:12:57.217Z,13.80
2023-05-20T04:15:19.560Z,12.20
2023-05-20T04:17:41.810Z,12.20
2023-05-20T04:20:05.963Z,12.53
2023-05-20T04:22:27.521Z,12.97
2023-05-20T04:24:49.050Z,12.30
2023-05-20T04:27:11.161Z,13.50
2023-05-20T04:29:34.306Z,13.50
2023-05-20T04:31:58.771Z,12.53
2023-05-20T04:34:26.755Z,14.23
2023-05-20T04:36:49.050Z,14.40
2023-05-20T04:39:10.475Z,15.30
2023-05-20T04:41:31.932Z,14.33
2023-05-20T04:43:53.892Z,14.57
2023-05-20T04:46:16.516Z,15.80
2023-05-20T04:48:38.176Z,16.13
2023-05-20T04:50:59.890Z,15.07
2023-05-20T04:53:24.185Z,15.33
2023-05-20T04:55:46.301Z,15.63
2023-05-20T04:58:08.440Z,15.03
2023-05-20T05:00:29.908Z,15.50
2023-05-20T05:02:51.762Z,15.60
2023-05-20T05:05:13.282Z,15.00
2023-05-20T05:07:34.803Z,15.17
2023-05-20T05:09:56.361Z,15.13
2023-05-20T05:12:17.913Z,14.87
2023-05-20T05:14:41.249Z,14.20
2023-05-20T05:17:02.766Z,14.40
2023-05-20T05:19:24.261Z,13.47
2023-05-20T05:21:47.667Z,14.33
2023-05-20T05:24:09.203Z,13.70
2023-05-20T05:26:30.963Z,14.53
2023-05-20T05:28:54.986Z,14.00
2023-05-20T05:31:16.461Z,14.00
2023-05-20T05:33:37.951Z,14.20
2023-05-20T05:36:01.127Z,15.40
2023-05-20T05:38:22.619Z,14.60
2023-05-20T05:40:44.059Z,14.37
2023-05-20T05:43:05.586Z,14.60
2023-05-20T05:45:27.117Z,14.50
2023-05-20T05:47:48.603Z,14.53
2023-05-20T05:50:10.576Z,14.07
2023-05-20T05:52:32.028Z,15.20
2023-05-20T05:54:54.504Z,13.77
2023-05-20T05:57:15.965Z,14.03
2023-05-20T05:59:37.416Z,13.52
2023-05-20T06:01:59.005Z,13.60
2023-05-20T06:04:20.535Z,14.25
2023-05-20T06:06:42.112Z,13.55
2023-05-20T06:09:03.754Z,13.93
2023-05-20T06:11:26.440Z,13.63
2023-05-20T06:13:47.907Z,14.23
2023-05-20T06:16:09.428Z,14.48
2023-05-20T06:18:31.072Z,14.48
2023-05-20T06:20:56.949Z,15.52
2023-05-20T06:23:18.416Z,14.35
2023-05-20T06:25:39.903Z,14.88
2023-05-20T06:28:01.367Z,15.65
2023-05-20T06:30:22.989Z,13.75
2023-05-20T06:32:44.480Z,14.15
2023-05-20T06:35:06.324Z,13.77
2023-05-20T06:37:27.865Z,13.98
2023-05-20T06:39:53.753Z,13.55
2023-05-20T06:42:15.212Z,13.73
2023-05-20T06:44:36.721Z,13.18
2023-05-20T06:46:58.168Z,12.43
2023-05-20T06:49:19.650Z,11.95
2023-05-20T06:51:41.148Z,12.48
2023-05-20T06:54:02.629Z,11.98
2023-05-20T06:56:24.170Z,12.30
2023-05-20T06:58:45.652Z,10.90
2023-05-20T07:01:07.206Z,10.05
2023-05-20T07:03:28.721Z,10.40
2023-05-20T07:05:51.463Z,10.05
2023-05-20T07:08:12.945Z,10.63
2023-05-20T07:10:34.684Z,9.73
2023-05-20T07:12:56.386Z,10.00
2023-05-20T07:15:18.092Z,9.48
2023-05-20T07:17:39.679Z,10.48
2023-05-20T07:20:01.231Z,10.18
2023-05-20T07:22:22.757Z,9.52
2023-05-20T07:24:44.774Z,8.40
2023-05-20T07:27:06.264Z,8.70
2023-05-20T07:29:27.953Z,8.07
2023-05-20T07:31:49.438Z,9.25
2023-05-20T07:34:10.961Z,8.50
2023-05-20T07:36:32.495Z,8.57
2023-05-20T07:39:02.905Z,8.60
2023-05-20T07:41:26.596Z,8.50
2023-05-20T07:43:48.192Z,8.80
2023-05-20T07:46:09.702Z,8.80
2023-05-20T07:48:31.208Z,8.88
2023-05-20T07:50:52.710Z,9.23
2023-05-20T07:53:14.215Z,9.23
2023-05-20T07:55:38.560Z,9.90
2023-05-20T07:58:00.108Z,9.98
2023-05-20T08:00:21.609Z,9.52
2023-05-20T08:02:43.179Z,9.80
2023-05-20T08:05:05.438Z,9.65
2023-05-20T08:07:26.908Z,9.82
2023-05-20T08:09:48.376Z,9.98
2023-05-20T08:12:09.844Z,9.60
2023-05-20T08:14:31.324Z,10.10
2023-05-20T08:16:54.868Z,9.98
2023-05-20T08:19:16.672Z,13.80
2023-05-20T08:21:38.531Z,12.05
2023-05-20T08:24:00.028Z,11.00
2023-05-20T08:26:22.080Z,10.82
2023-05-20T08:28:43.587Z,11.20
2023-05-20T08:31:05.617Z,10.77
2023-05-20T08:33:27.161Z,11.55
2023-05-20T08:35:48.969Z,11.30
2023-05-20T08:38:10.472Z,11.70
2023-05-20T08:40:34.568Z,11.88
2023-05-20T08:42:57.738Z,11.35
2023-05-20T08:45:27.751Z,11.32
2023-05-20T08:47:49.423Z,11.75
2023-05-20T08:50:12.763Z,11.88
2023-05-20T08:52:35.321Z,12.38
2023-05-20T08:54:56.869Z,12.05
2023-05-20T08:57:20.373Z,12.38
2023-05-20T08:59:44.116Z,11.68
2023-05-20T09:02:06.081Z,11.95
2023-05-20T09:04:27.710Z,13.18
2023-05-20T09:06:51.093Z,13.00
2023-05-20T09:09:14.372Z,13.82
2023-05-20T09:11:35.906Z,13.10
2023-05-20T09:13:57.401Z,12.38
2023-05-20T09:16:19.146Z,13.73
2023-05-20T09:18:41.570Z,12.45
2023-05-20T09:21:07.044Z,13.43
2023-05-20T09:23:30.732Z,13.40
2023-05-20T09:25:52.939Z,12.38
2023-05-20T09:28:14.746Z,12.80
2023-05-20T09:30:36.346Z,12.77
2023-05-20T09:33:00.029Z,13.70
2023-05-20T09:35:23.333Z,13.32
2023-05-20T09:37:47.888Z,13.02
2023-05-20T09:40:12.391Z,13.30
2023-05-20T09:42:44.161Z,12.85
2023-05-20T09:45:09.482Z,14.13
2023-05-20T09:47:32.331Z,14.55
2023-05-20T09:49:54.055Z,13.80
2023-05-20T09:52:16.415Z,16.05
2023-05-20T09:54:37.927Z,15.23
2023-05-20T09:57:00.713Z,15.43
2023-05-20T09:59:23.694Z,14.82
2023-05-20T10:01:46.177Z,14.85
2023-05-20T10:04:09.669Z,14.85
2023-05-20T10:07:09.027Z,14.77
2023-05-20T10:09:51.078Z,14.93
2023-05-20T10:12:28.386Z,15.23
2023-05-20T10:15:10.465Z,15.15
2023-05-20T10:18:01.428Z,15.02
2023-05-20T10:20:23.272Z,15.98
2023-05-20T10:23:00.935Z,14.93
2023-05-20T10:25:27.747Z,14.77
2023-05-20T10:27:49.204Z,15.32
2023-05-20T10:30:21.158Z,14.85
2023-05-20T10:32:52.042Z,14.60
2023-05-20T10:35:13.543Z,15.15
2023-05-20T10:37:43.462Z,14.50
2023-05-20T10:40:15.329Z,14.40
2023-05-20T10:42:36.866Z,14.63
2023-05-20T10:44:58.369Z,14.23
2023-05-20T10:47:25.533Z,15.13
2023-05-20T10:49:47.627Z,19.40
2023-05-20T10:52:10.363Z,14.98
2023-05-20T10:54:36.484Z,13.65
2023-05-20T10:56:58.111Z,15.25
2023-05-20T10:59:21.608Z,14.27
2023-05-20T11:01:43.472Z,14.27
2023-05-20T11:04:06.041Z,14.18
2023-05-20T11:06:28.808Z,15.00
2023-05-20T11:08:50.368Z,14.43
2023-05-20T11:11:15.447Z,14.80
2023-05-20T11:13:36.964Z,14.82
2023-05-20T11:15:59.231Z,14.60
2023-05-20T11:18:20.973Z,15.73
2023-05-20T11:20:42.535Z,15.02
2023-05-20T11:23:06.199Z,15.02
2023-05-20T11:25:28.309Z,14.20
2023-05-20T11:27:50.692Z,13.95
2023-05-20T11:30:16.744Z,13.98
2023-05-20T11:32:38.251Z,13.05
2023-05-20T11:34:59.731Z,13.90
2023-05-20T11:37:22.010Z,12.57
2023-05-20T11:39:43.531Z,13.60
2023-05-20T11:42:06.377Z,13.80
2023-05-20T11:44:27.996Z,12.73
2023-05-20T11:46:49.480Z,19.17
2023-05-20T11:49:13.049Z,13.63
2023-05-20T11:51:34.914Z,14.32
2023-05-20T11:54:01.487Z,16.50
2023-05-20T11:56:22.979Z,16.25
2023-05-20T11:58:45.869Z,13.82
2023-05-20T12:01:20.838Z,23.40
2023-05-20T12:03:43.753Z,14.55
2023-05-20T12:06:05.486Z,14.60
2023-05-20T12:08:27.038Z,14.50
2023-05-20T12:10:48.540Z,15.45
2023-05-20T12:13:11.428Z,13.98
2023-05-20T12:15:32.965Z,15.80
2023-05-20T12:17:54.613Z,15.18
2023-05-20T12:20:17.308Z,15.30
2023-05-20T12:22:38.768Z,14.73
2023-05-20T12:25:00.227Z,20.27
2023-05-20T12:27:21.708Z,15.95
2023-05-20T12:29:43.153Z,16.23
2023-05-20T12:32:05.014Z,15.23
2023-05-20T12:34:26.788Z,16.48
2023-05-20T12:36:48.479Z,17.30
2023-05-20T12:39:10.889Z,16.15
2023-05-20T12:41:32.359Z,16.55
2023-05-20T12:43:54.332Z,16.95
2023-05-20T12:46:16.043Z,16.27
2023-05-20T12:48:37.586Z,16.70
2023-05-20T12:51:00.544Z,16.60
2023-05-20T12:53:21.995Z,15.65
2023-05-20T12:55:43.509Z,16.27
2023-05-20T12:58:04.966Z,19.70
2023-05-20T13:00:26.421Z,19.38
2023-05-20T13:02:48.236Z,17.90
2023-05-20T13:05:10.779Z,17.58
2023-05-20T13:07:32.821Z,16.83
2023-05-20T13:09:54.445Z,17.73
2023-05-20T13:12:15.903Z,16.40
2023-05-20T13:14:37.451Z,16.73
2023-05-20T13:16:59.012Z,16.60
2023-05-20T13:19:23.569Z,17.00
2023-05-20T13:21:45.071Z,17.80
2023-05-20T13:24:06.727Z,17.60
2023-05-20T13:26:28.396Z,16.50
2023-05-20T13:28:50.676Z,16.13
2023-05-20T13:31:12.122Z,16.13
2023-05-20T13:33:33.709Z,15.70
2023-05-20T13:35:55.262Z,16.83
2023-05-20T13:38:17.550Z,16.58
2023-05-20T13:40:39.012Z,15.68
2023-05-20T13:43:00.536Z,15.95
2023-05-20T13:45:23.265Z,15.02
2023-05-20T13:47:44.782Z,16.20
2023-05-20T13:50:07.294Z,15.73
2023-05-20T13:52:28.825Z,18.98
2023-05-20T13:54:50.287Z,17.52
2023-05-20T13:57:11.757Z,49.42
2023-05-20T13:59:33.341Z,15.65
2023-05-20T14:01:54.886Z,15.75
2023-05-20T14:04:16.490Z,14.60
2023-05-20T14:06:38.470Z,15.63
2023-05-20T14:08:59.945Z,15.90
2023-05-20T14:11:21.849Z,15.52
2023-05-20T14:13:44.472Z,16.52
2023-05-20T14:16:06.407Z,15.73
2023-05-20T14:18:27.908Z,15.90
2023-05-20T14:20:49.543Z,17.38
2023-05-20T14:23:11.271Z,15.98
2023-05-20T14:25:32.742Z,16.30
2023-05-20T14:27:54.362Z,16.63
2023-05-20T14:30:16.082Z,16.88
2023-05-20T14:32:37.694Z,17.67
2023-05-20T14:35:00.026Z,17.63
2023-05-20T14:37:22.908Z,18.25
2023-05-20T14:39:44.391Z,17.33
2023-05-20T14:42:06.128Z,16.85
2023-05-20T14:44:27.593Z,17.52
2023-05-20T14:46:49.160Z,17.63
2023-05-20T14:49:10.833Z,18.95
2023-05-20T14:51:32.390Z,18.27
2023-05-20T14:53:53.848Z,18.63
2023-05-20T14:56:15.407Z,19.08
2023-05-20T14:58:36.884Z,17.30
2023-05-20T15:00:58.388Z,18.20
2023-05-20T15:03:20.444Z,18.38
2023-05-20T15:05:42.561Z,16.85
2023-05-20T15:08:04.235Z,18.17
2023-05-20T15:10:25.780Z,16.98
2023-05-20T15:12:47.290Z,16.58
2023-05-20T15:15:09.821Z,17.45
2023-05-20T15:17:31.303Z,18.23
2023-05-20T15:19:52.893Z,16.75
2023-05-20T15:22:14.425Z,16.83
2023-05-20T15:24:35.940Z,16.67
2023-05-20T15:26:57.575Z,17.55
2023-05-20T15:29:19.068Z,16.45
2023-05-20T15:31:40.534Z,17.70
2023-05-20T15:34:02.638Z,16.80
2023-05-20T15:36:24.353Z,37.28
2023-05-20T15:38:45.815Z,26.83
2023-05-20T15:41:07.908Z,17.90
2023-05-20T15:43:29.440Z,16.38
2023-05-20T15:45:50.961Z,15.88
2023-05-20T15:48:12.694Z,16.23
2023-05-20T15:50:37.419Z,15.63
2023-05-20T15:52:59.006Z,15.65
2023-05-20T15:55:23.128Z,15.45
2023-05-20T15:57:44.895Z,17.67
2023-05-20T16:00:10.332Z,16.95
2023-05-20T16:02:36.027Z,16.70
2023-05-20T16:04:57.986Z,17.17
2023-05-20T16:07:19.640Z,14.73
2023-05-20T16:09:41.294Z,17.90
2023-05-20T16:12:02.876Z,16.35
2023-05-20T16:14:24.412Z,16.13
2023-05-20T16:16:46.037Z,15.05
2023-05-20T16:19:07.626Z,16.33
2023-05-20T16:21:29.230Z,15.50
2023-05-20T16:23:50.973Z,15.05
2023-05-20T16:26:12.489Z,15.27
2023-05-20T16:28:34.015Z,15.32
2023-05-20T16:30:55.648Z,15.20
2023-05-20T16:33:17.493Z,15.30
2023-05-20T16:35:38.972Z,15.18
2023-05-20T16:38:00.738Z,16.17
2023-05-20T16:40:22.644Z,14.70
2023-05-20T16:42:44.803Z,14.95
2023-05-20T16:45:06.917Z,14.50
2023-05-20T16:47:28.358Z,14.93
2023-05-20T16:49:49.825Z,13.75
2023-05-20T16:52:11.902Z,14.75
2023-05-20T16:54:36.182Z,14.95
2023-05-20T16:56:57.659Z,14.02
2023-05-20T16:59:19.305Z,14.73
2023-05-20T17:01:40.891Z,14.50
2023-05-20T17:04:03.389Z,13.07
2023-05-20T17:06:24.970Z,13.93
2023-05-20T17:08:46.583Z,14.55
2023-05-20T17:11:08.057Z,14.07
2023-05-20T17:13:29.545Z,13.80
2023-05-20T17:15:51.046Z,13.13
2023-05-20T17:18:12.584Z,13.57
2023-05-20T17:20:34.273Z,14.35
2023-05-20T17:22:55.839Z,13.35
2023-05-20T17:25:17.320Z,12.82
2023-05-20T17:27:38.894Z,13.00
2023-05-20T17:30:00.416Z,12.90
2023-05-20T17:32:21.898Z,13.45
2023-05-20T17:34:43.333Z,14.10
2023-05-20T17:37:04.988Z,12.93
2023-05-20T17:39:26.432Z,13.30
2023-05-20T17:41:47.883Z,13.05
2023-05-20T17:44:09.351Z,14.00
2023-05-20T17:46:31.099Z,12.63
2023-05-20T17:48:52.675Z,13.05
2023-05-20T17:51:14.183Z,13.27
2023-05-20T17:53:35.632Z,13.57
2023-05-20T17:55:57.161Z,13.88
2023-05-20T17:58:22.200Z,13.73
2023-05-20T18:00:43.832Z,12.63
2023-05-20T18:03:05.929Z,13.48
2023-05-20T18:05:27.452Z,13.43
2023-05-20T18:07:48.894Z,14.52
2023-05-20T18:10:10.828Z,14.50
2023-05-20T18:12:32.265Z,14.57
2023-05-20T18:14:53.724Z,13.63
2023-05-20T18:17:15.471Z,15.02
2023-05-20T18:19:36.943Z,14.90
2023-05-20T18:21:58.624Z,14.32
2023-05-20T18:24:20.584Z,15.10
2023-05-20T18:26:45.646Z,15.18
2023-05-20T18:29:07.128Z,15.73
2023-05-20T18:31:28.670Z,15.07
2023-05-20T18:33:50.136Z,15.90
2023-05-20T18:36:11.886Z,15.90
2023-05-20T18:38:33.363Z,15.15
2023-05-20T18:40:54.931Z,15.88
2023-05-20T18:43:16.444Z,15.43
2023-05-20T18:45:37.921Z,15.02
2023-05-20T18:48:00.026Z,15.48
2023-05-20T18:50:21.755Z,15.68
2023-05-20T18:52:43.213Z,17.05
2023-05-20T18:55:04.969Z,16.88
2023-05-20T18:57:29.173Z,17.08
2023-05-20T18:59:50.610Z,17.33
2023-05-20T19:02:12.083Z,16.90
2023-05-20T19:04:33.542Z,17.00
2023-05-20T19:06:55.017Z,17.20
2023-05-20T19:09:16.526Z,18.23
2023-05-20T19:11:38.086Z,17.45
2023-05-20T19:13:59.606Z,17.17
2023-05-20T19:16:21.270Z,16.38
2023-05-20T19:18:42.787Z,16.85
2023-05-20T19:21:04.455Z,16.83
2023-05-20T19:23:25.985Z,17.75
2023-05-20T19:25:47.521Z,17.77
2023-05-20T19:28:08.974Z,20.38
2023-05-20T19:30:30.644Z,19.67
2023-05-20T19:32:52.195Z,23.13
2023-05-20T19:35:13.772Z,21.92
2023-05-20T19:37:35.251Z,24.05
2023-05-20T19:39:56.799Z,20.55
2023-05-20T19:42:18.331Z,18.38
2023-05-20T19:44:39.799Z,18.42
2023-05-20T19:47:01.533Z,17.90
2023-05-20T19:49:22.996Z,17.27
2023-05-20T19:51:44.509Z,17.15
2023-05-20T19:54:05.966Z,17.30
2023-05-20T19:56:27.447Z,17.00
2023-05-20T19:58:48.905Z,17.10
2023-05-20T20:01:10.739Z,17.88
2023-05-20T20:03:34.036Z,17.67
2023-05-20T20:05:57.050Z,17.65
2023-05-20T20:08:18.729Z,18.70
2023-05-20T20:10:40.202Z,18.42
2023-05-20T20:13:01.686Z,19.73
2023-05-20T20:15:25.005Z,19.90
2023-05-20T20:17:52.004Z,19.52
2023-05-20T20:20:14.369Z,20.17
2023-05-20T20:22:35.969Z,19.77
2023-05-20T20:24:57.402Z,20.33
2023-05-20T20:27:19.290Z,20.15
2023-05-20T20:29:43.768Z,18.95
2023-05-20T20:32:05.891Z,18.75
2023-05-20T20:34:27.404Z,19.15
2023-05-20T20:36:50.689Z,19.05
2023-05-20T20:39:19.117Z,18.55
2023-05-20T20:41:45.029Z,17.45
2023-05-20T20:44:07.249Z,18.73
2023-05-20T20:46:28.827Z,17.45
2023-05-20T20:48:50.362Z,16.92
2023-05-20T20:51:17.889Z,15.57
2023-05-20T20:53:41.915Z,17.33
2023-05-20T20:56:03.804Z,18.23
2023-05-20T20:58:25.285Z,17.08
2023-05-20T21:00:48.625Z,17.50
2023-05-20T21:03:11.962Z,20.50
2023-05-20T21:05:37.309Z,20.98
2023-05-20T21:07:59.223Z,24.63
2023-05-20T21:10:20.791Z,22.73
2023-05-20T21:12:42.296Z,21.13
2023-05-20T21:15:04.022Z,21.98
2023-05-20T21:17:25.512Z,18.83
2023-05-20T21:19:46.951Z,18.25
2023-05-20T21:22:08.451Z,18.50
2023-05-20T21:24:29.970Z,20.60
2023-05-20T21:26:51.428Z,21.95
2023-05-20T21:29:12.871Z,26.35
2023-05-20T21:31:34.491Z,25.60
2023-05-20T21:33:56.105Z,21.53
2023-05-20T21:36:17.551Z,20.40
2023-05-20T21:38:39.151Z,19.58
2023-05-20T21:41:01.678Z,19.07
2023-05-20T21:43:23.170Z,17.93
2023-05-20T21:45:45.750Z,18.13
2023-05-20T21:48:07.276Z,17.03
2023-05-20T21:50:28.737Z,17.40
2023-05-20T21:52:50.506Z,19.50
2023-05-20T21:55:12.161Z,18.40
2023-05-20T21:57:33.590Z,19.63
2023-05-20T21:59:55.051Z,20.00
2023-05-20T22:02:17.588Z,20.63
2023-05-20T22:04:39.076Z,21.53
2023-05-20T22:07:00.759Z,18.83
2023-05-20T22:09:22.516Z,20.23
2023-05-20T22:11:45.227Z,20.40
2023-05-20T22:14:06.702Z,17.63
2023-05-20T22:16:28.879Z,18.43
2023-05-20T22:18:50.461Z,19.07
2023-05-20T22:21:12.602Z,17.70
2023-05-20T22:23:34.118Z,19.27
2023-05-20T22:25:56.265Z,18.27
2023-05-20T22:28:17.852Z,18.70
2023-05-20T22:30:39.311Z,18.03
2023-05-20T22:33:00.812Z,18.53
2023-05-20T22:35:23.763Z,18.27
2023-05-20T22:37:45.288Z,18.90
2023-05-20T22:40:07.750Z,19.63
2023-05-20T22:42:29.247Z,18.90
2023-05-20T22:44:50.740Z,18.47
2023-05-20T22:47:12.283Z,18.33
2023-05-20T22:49:33.798Z,18.93
2023-05-20T22:51:55.280Z,20.30
2023-05-20T22:54:17.454Z,20.07
2023-05-20T22:56:38.944Z,19.73
2023-05-20T22:59:00.772Z,19.03
2023-05-20T23:01:22.302Z,18.10
2023-05-20T23:03:46.880Z,18.43
2023-05-20T23:06:08.351Z,18.40
2023-05-20T23:08:29.958Z,19.50
2023-05-20T23:10:51.499Z,20.27
2023-05-20T23:13:13.073Z,18.70
2023-05-20T23:15:34.850Z,18.97
2023-05-20T23:17:56.610Z,19.57
2023-05-20T23:20:19.769Z,19.97
2023-05-20T23:22:41.335Z,19.90
2023-05-20T23:25:03.070Z,19.03
2023-05-20T23:27:24.502Z,18.10
2023-05-20T23:29:46.023Z,18.83
2023-05-20T23:32:07.635Z,19.47
2023-05-20T23:34:30.837Z,20.03
2023-05-20T23:36:52.899Z,17.20
2023-05-20T23:39:16.254Z,17.77
2023-05-20T23:41:39.590Z,18.10
2023-05-20T23:44:03.856Z,18.03
2023-05-20T23:46:25.758Z,17.73
2023-05-20T23:48:49.949Z,18.90
2023-05-20T23:51:13.551Z,16.87
2023-05-20T23:53:35.033Z,18.53
2023-05-20T23:55:56.487Z,17.13
2023-05-20T23:58:18.142Z,18.03
